createdAt,value
2018-02-24T00:00:48.233Z,21.88
2018-02-24T00:03:16.521Z,25.77
2018-02-24T00:05:44.783Z,24.55
2018-02-24T00:08:13.096Z,27.58
2018-02-24T00:10:41.374Z,39.10
2018-02-24T00:13:09.634Z,31.78
2018-02-24T00:15:37.918Z,28.87
2018-02-24T00:18:07.199Z,25.77
2018-02-24T00:20:35.455Z,28.33
2018-02-24T00:23:03.747Z,27.00
2018-02-24T00:25:32.011Z,26.32
2018-02-24T00:28:00.257Z,24.07
2018-02-24T00:30:28.546Z,28.20
2018-02-24T00:32:56.826Z,27.67
2018-02-24T00:35:25.132Z,20.83
2018-02-24T00:37:53.418Z,31.00
2018-02-24T00:40:21.741Z,33.28
2018-02-24T00:42:50.060Z,29.25
2018-02-24T00:45:18.439Z,31.62
2018-02-24T00:47:46.750Z,35.88
2018-02-24T00:50:15.069Z,24.73
2018-02-24T00:52:43.345Z,32.10
2018-02-24T00:55:11.636Z,35.32
2018-02-24T00:57:39.903Z,25.98
2018-02-24T01:00:08.254Z,30.22
2018-02-24T01:02:36.537Z,25.25
2018-02-24T01:05:05.600Z,26.50
2018-02-24T01:07:33.856Z,27.93
2018-02-24T01:10:02.106Z,26.75
2018-02-24T01:12:30.441Z,26.10
2018-02-24T01:14:58.739Z,28.35
2018-02-24T01:17:27.009Z,32.48
2018-02-24T01:19:55.284Z,33.45
2018-02-24T01:22:23.587Z,33.63
2018-02-24T01:24:51.905Z,26.95
2018-02-24T01:27:20.204Z,31.12
2018-02-24T01:29:48.498Z,32.38
2018-02-24T01:32:16.769Z,33.00
2018-02-24T01:34:44.285Z,27.98
2018-02-24T01:37:12.578Z,32.70
2018-02-24T01:39:40.830Z,31.32
2018-02-24T01:42:09.106Z,33.72
2018-02-24T01:44:37.403Z,37.68
2018-02-24T01:47:06.562Z,29.88
2018-02-24T01:49:36.137Z,28.07
2018-02-24T01:52:03.636Z,29.27
2018-02-24T01:54:32.890Z,32.15
2018-02-24T01:57:01.234Z,25.32
2018-02-24T01:59:29.588Z,32.02
2018-02-24T02:01:57.956Z,28.02
2018-02-24T02:04:29.380Z,31.28
2018-02-24T02:06:57.674Z,28.83
2018-02-24T02:09:25.935Z,40.15
2018-02-24T02:11:54.194Z,29.85
2018-02-24T02:14:22.482Z,30.67
2018-02-24T02:16:50.730Z,30.13
2018-02-24T02:19:19.026Z,31.05
2018-02-24T02:21:47.328Z,24.62
2018-02-24T02:24:15.595Z,27.43
2018-02-24T02:26:43.897Z,27.00
2018-02-24T02:29:12.166Z,33.45
2018-02-24T02:31:40.477Z,33.38
2018-02-24T02:34:08.744Z,30.57
2018-02-24T02:36:37.018Z,33.60
2018-02-24T02:39:05.302Z,25.10
2018-02-24T02:41:33.587Z,40.37
2018-02-24T02:44:01.842Z,30.80
2018-02-24T02:46:29.359Z,32.97
2018-02-24T02:48:57.614Z,30.83
2018-02-24T02:51:25.894Z,26.98
2018-02-24T02:53:54.182Z,31.27
2018-02-24T02:56:22.486Z,24.80
2018-02-24T02:58:50.765Z,31.77
2018-02-24T03:01:19.090Z,38.02
2018-02-24T03:03:47.368Z,27.10
2018-02-24T03:06:15.641Z,27.68
2018-02-24T03:08:43.935Z,28.17
2018-02-24T03:11:12.195Z,45.50
2018-02-24T03:13:40.495Z,28.30
2018-02-24T03:16:08.763Z,30.10
2018-02-24T03:18:37.055Z,28.72
2018-02-24T03:21:05.334Z,22.62
2018-02-24T03:23:33.585Z,27.90
2018-02-24T03:26:01.887Z,27.67
2018-02-24T03:28:30.182Z,30.55
2018-02-24T03:30:58.445Z,30.70
2018-02-24T03:33:26.742Z,30.83
2018-02-24T03:35:55.031Z,30.47
2018-02-24T03:38:23.299Z,26.85
2018-02-24T03:40:51.598Z,27.77
2018-02-24T03:43:19.903Z,30.90
2018-02-24T03:45:48.327Z,30.88
2018-02-24T03:48:16.615Z,34.55
2018-02-24T03:50:44.876Z,32.63
2018-02-24T03:53:13.194Z,28.67
2018-02-24T03:55:41.467Z,25.62
2018-02-24T03:58:09.769Z,33.40
2018-02-24T04:00:37.298Z,24.55
2018-02-24T04:03:06.595Z,34.90
2018-02-24T04:05:36.140Z,26.50
2018-02-24T04:08:04.411Z,30.62
2018-02-24T04:10:32.680Z,32.97
2018-02-24T04:13:00.975Z,36.02
2018-02-24T04:15:29.234Z,28.28
2018-02-24T04:17:57.527Z,31.25
2018-02-24T04:20:25.819Z,41.92
2018-02-24T04:22:54.142Z,30.87
2018-02-24T04:25:22.440Z,37.40
2018-02-24T04:27:50.719Z,27.67
2018-02-24T04:30:19.033Z,27.97
2018-02-24T04:32:47.331Z,30.33
2018-02-24T04:35:14.837Z,34.98
2018-02-24T04:37:43.137Z,36.08
2018-02-24T04:40:11.394Z,25.53
2018-02-24T04:42:38.933Z,33.23
2018-02-24T04:45:07.209Z,26.08
2018-02-24T04:47:35.503Z,31.20
2018-02-24T04:50:03.805Z,30.25
2018-02-24T04:52:32.087Z,33.15
2018-02-24T04:55:02.312Z,31.70
2018-02-24T04:57:30.582Z,31.42
2018-02-24T04:59:58.866Z,26.70
2018-02-24T05:02:27.160Z,31.52
2018-02-24T05:04:55.430Z,27.52
2018-02-24T05:07:22.981Z,30.28
2018-02-24T05:09:51.297Z,24.75
2018-02-24T05:12:19.640Z,30.82
2018-02-24T05:14:47.947Z,28.62
2018-02-24T05:17:15.475Z,27.58
2018-02-24T05:19:43.748Z,29.05
2018-02-24T05:22:11.278Z,27.78
2018-02-24T05:24:38.768Z,30.50
2018-02-24T05:27:07.053Z,27.50
2018-02-24T05:29:35.306Z,31.68
2018-02-24T05:32:03.602Z,33.92
2018-02-24T05:34:31.879Z,35.58
2018-02-24T05:37:00.179Z,32.60
2018-02-24T05:39:28.460Z,30.17
2018-02-24T05:41:57.035Z,39.42
2018-02-24T05:44:25.302Z,30.98
2018-02-24T05:46:53.567Z,24.55
2018-02-24T05:49:21.869Z,30.75
2018-02-24T05:51:50.184Z,28.85
2018-02-24T05:54:18.439Z,25.02
2018-02-24T05:56:46.738Z,26.05
2018-02-24T05:59:15.022Z,36.87
2018-02-24T06:01:43.406Z,26.05
2018-02-24T06:04:11.680Z,25.73
2018-02-24T06:06:39.214Z,39.20
2018-02-24T06:09:07.632Z,32.60
2018-02-24T06:11:37.150Z,27.27
2018-02-24T06:14:06.451Z,24.60
2018-02-24T06:16:35.731Z,31.87
2018-02-24T06:19:03.989Z,31.08
2018-02-24T06:21:32.300Z,35.55
2018-02-24T06:23:59.797Z,25.22
2018-02-24T06:26:28.104Z,27.78
2018-02-24T06:28:56.389Z,31.22
2018-02-24T06:31:24.660Z,29.77
2018-02-24T06:33:52.974Z,28.30
2018-02-24T06:36:21.235Z,24.97
2018-02-24T06:38:49.527Z,21.85
2018-02-24T06:41:17.842Z,32.95
2018-02-24T06:43:46.147Z,32.23
2018-02-24T06:46:13.666Z,25.97
2018-02-24T06:48:41.939Z,30.03
2018-02-24T06:51:10.235Z,25.47
2018-02-24T06:53:38.500Z,29.13
2018-02-24T06:56:06.796Z,36.35
2018-02-24T06:58:35.965Z,25.40
2018-02-24T07:01:05.037Z,28.15
2018-02-24T07:03:33.310Z,22.08
2018-02-24T07:06:01.625Z,28.55
2018-02-24T07:08:29.895Z,31.03
2018-02-24T07:10:59.069Z,31.73
2018-02-24T07:13:27.368Z,31.70
2018-02-24T07:15:55.651Z,39.03
2018-02-24T07:18:23.984Z,27.53
2018-02-24T07:20:52.222Z,36.45
2018-02-24T07:23:20.486Z,22.77
2018-02-24T07:25:48.770Z,30.48
2018-02-24T07:28:17.047Z,26.15
2018-02-24T07:30:44.578Z,29.62
2018-02-24T07:33:12.851Z,25.88
2018-02-24T07:35:41.151Z,27.35
2018-02-24T07:38:09.415Z,29.18
2018-02-24T07:40:37.717Z,28.92
2018-02-24T07:43:05.684Z,22.68
2018-02-24T07:45:33.939Z,27.22
2018-02-24T07:48:02.236Z,23.78
2018-02-24T07:50:30.533Z,29.28
2018-02-24T07:52:58.028Z,28.77
2018-02-24T07:55:26.325Z,27.87
2018-02-24T07:57:54.623Z,29.20
2018-02-24T08:00:22.880Z,40.03
2018-02-24T08:02:51.179Z,26.30
2018-02-24T08:05:19.446Z,25.82
2018-02-24T08:07:47.738Z,24.68
2018-02-24T08:10:16.054Z,24.53
2018-02-24T08:12:44.338Z,30.02
2018-02-24T08:15:12.598Z,31.95
2018-02-24T08:17:40.902Z,24.60
2018-02-24T08:20:09.167Z,25.93
2018-02-24T08:22:36.708Z,22.95
2018-02-24T08:25:06.084Z,29.28
2018-02-24T08:27:34.427Z,24.18
2018-02-24T08:30:02.679Z,25.27
2018-02-24T08:32:30.953Z,20.97
2018-02-24T08:34:59.261Z,21.32
2018-02-24T08:37:27.547Z,19.77
2018-02-24T08:39:55.808Z,23.15
2018-02-24T08:42:24.107Z,22.88
2018-02-24T08:44:52.374Z,21.90
2018-02-24T08:47:20.681Z,20.13
2018-02-24T08:49:48.948Z,17.87
2018-02-24T08:52:17.242Z,29.35
2018-02-24T08:54:45.512Z,16.87
2018-02-24T08:57:13.811Z,19.43
2018-02-24T08:59:42.076Z,22.27
2018-02-24T09:02:10.368Z,24.68
2018-02-24T09:04:38.670Z,21.58
2018-02-24T09:07:06.951Z,24.28
2018-02-24T09:09:36.044Z,22.92
2018-02-24T09:12:04.329Z,16.52
2018-02-24T09:14:32.618Z,24.75
2018-02-24T09:17:00.880Z,21.27
2018-02-24T09:19:29.204Z,19.70
2018-02-24T09:21:57.462Z,23.78
2018-02-24T09:24:25.723Z,30.63
2018-02-24T09:26:54.014Z,20.73
2018-02-24T09:29:22.308Z,19.95
2018-02-24T09:31:50.582Z,19.63
2018-02-24T09:34:18.875Z,21.40
2018-02-24T09:36:47.156Z,16.53
2018-02-24T09:39:15.462Z,19.00
2018-02-24T09:41:43.723Z,21.83
2018-02-24T09:44:12.020Z,21.57
2018-02-24T09:46:40.311Z,19.75
2018-02-24T09:49:08.571Z,22.67
2018-02-24T09:51:36.871Z,21.67
2018-02-24T09:54:05.978Z,22.48
2018-02-24T09:56:35.077Z,16.55
2018-02-24T09:59:03.380Z,20.15
2018-02-24T10:01:31.675Z,21.85
2018-02-24T10:03:59.946Z,16.22
2018-02-24T10:06:28.209Z,18.42
2018-02-24T10:08:56.512Z,21.40
2018-02-24T10:11:24.812Z,16.73
2018-02-24T10:13:53.085Z,23.30
2018-02-24T10:16:23.338Z,24.85
2018-02-24T10:18:51.664Z,18.22
2018-02-24T10:21:19.181Z,25.42
2018-02-24T10:23:47.495Z,21.78
2018-02-24T10:26:20.172Z,16.63
2018-02-24T10:28:48.474Z,16.47
2018-02-24T10:31:17.683Z,33.57
2018-02-24T10:33:45.976Z,16.15
2018-02-24T10:36:17.700Z,22.40
2018-02-24T10:38:45.954Z,14.18
2018-02-24T10:41:17.910Z,17.85
2018-02-24T10:43:46.198Z,18.30
2018-02-24T10:46:14.454Z,17.27
2018-02-24T10:48:42.769Z,20.63
2018-02-24T10:51:11.029Z,22.58
2018-02-24T10:53:39.301Z,16.73
2018-02-24T10:56:07.654Z,20.73
2018-02-24T10:58:36.574Z,19.70
2018-02-24T11:01:05.730Z,24.58
2018-02-24T11:03:34.028Z,16.35
2018-02-24T11:06:03.838Z,18.47
2018-02-24T11:08:32.142Z,20.93
2018-02-24T11:11:00.404Z,18.07
2018-02-24T11:13:28.709Z,15.87
2018-02-24T11:15:56.967Z,19.10
2018-02-24T11:18:25.282Z,18.05
2018-02-24T11:20:53.547Z,20.87
2018-02-24T11:23:21.816Z,17.75
2018-02-24T11:25:50.122Z,20.82
2018-02-24T11:28:18.394Z,19.27
2018-02-24T11:30:46.701Z,14.80
2018-02-24T11:33:14.993Z,17.97
2018-02-24T11:35:43.316Z,16.77
2018-02-24T11:38:11.579Z,20.44
2018-02-24T11:40:39.840Z,21.94
2018-02-24T11:43:08.144Z,19.28
2018-02-24T11:45:36.427Z,12.94
2018-02-24T11:48:05.350Z,22.30
2018-02-24T11:50:33.602Z,18.46
2018-02-24T11:53:03.868Z,159.07
2018-02-24T11:55:32.136Z,77.22
2018-02-24T11:58:00.446Z,45.27
2018-02-24T12:00:28.695Z,21.60
2018-02-24T12:02:56.221Z,18.04
2018-02-24T12:05:24.526Z,18.40
2018-02-24T12:07:52.820Z,12.60
2018-02-24T12:10:21.115Z,14.34
2018-02-24T12:12:49.381Z,15.30
2018-02-24T12:15:17.636Z,13.46
2018-02-24T12:17:45.953Z,13.94
2018-02-24T12:20:14.263Z,11.50
2018-02-24T12:22:42.518Z,11.78
2018-02-24T12:25:10.048Z,12.74
2018-02-24T12:27:38.322Z,11.42
2018-02-24T12:30:06.785Z,17.66
2018-02-24T12:32:36.227Z,11.28
2018-02-24T12:35:04.794Z,11.24
2018-02-24T12:37:33.052Z,11.48
2018-02-24T12:40:01.329Z,18.06
2018-02-24T12:42:29.619Z,15.54
2018-02-24T12:44:57.871Z,15.44
2018-02-24T12:47:26.151Z,13.16
2018-02-24T12:49:54.440Z,14.02
2018-02-24T12:52:21.941Z,11.82
2018-02-24T12:54:50.242Z,12.46
2018-02-24T12:57:18.495Z,11.00
2018-02-24T12:59:46.783Z,12.40
2018-02-24T13:02:15.086Z,10.88
2018-02-24T13:04:44.280Z,13.66
2018-02-24T13:07:12.577Z,15.62
2018-02-24T13:09:40.827Z,15.36
2018-02-24T13:12:09.114Z,12.94
2018-02-24T13:14:37.380Z,10.32
2018-02-24T13:17:06.324Z,8.50
2018-02-24T13:19:35.728Z,11.96
2018-02-24T13:22:05.134Z,14.56
2018-02-24T13:24:33.384Z,11.38
2018-02-24T13:27:01.684Z,13.74
2018-02-24T13:29:29.989Z,9.48
2018-02-24T13:31:58.252Z,11.98
2018-02-24T13:34:26.509Z,9.76
2018-02-24T13:36:54.803Z,8.68
2018-02-24T13:39:23.080Z,8.24
2018-02-24T13:41:51.322Z,7.44
2018-02-24T13:44:19.614Z,9.68
2018-02-24T13:46:47.862Z,10.02
2018-02-24T13:49:16.180Z,10.88
2018-02-24T13:51:44.426Z,8.72
2018-02-24T13:54:12.680Z,8.50
2018-02-24T13:56:40.972Z,9.88
2018-02-24T13:59:09.237Z,7.96
2018-02-24T14:01:37.527Z,7.76
2018-02-24T14:04:06.837Z,8.30
2018-02-24T14:06:34.352Z,6.20
2018-02-24T14:09:02.643Z,6.78
2018-02-24T14:11:30.941Z,9.16
2018-02-24T14:13:59.183Z,6.94
2018-02-24T14:16:27.485Z,10.56
2018-02-24T14:18:55.736Z,8.52
2018-02-24T14:21:24.019Z,12.32
2018-02-24T14:23:52.293Z,9.86
2018-02-24T14:26:20.555Z,9.62
2018-02-24T14:28:48.830Z,6.50
2018-02-24T14:31:17.120Z,8.22
2018-02-24T14:33:45.389Z,9.40
2018-02-24T14:36:13.684Z,7.96
2018-02-24T14:38:41.939Z,9.82
2018-02-24T14:41:10.222Z,10.64
2018-02-24T14:43:38.492Z,10.75
2018-02-24T14:46:06.779Z,10.16
2018-02-24T14:48:35.975Z,7.85
2018-02-24T14:51:04.965Z,6.36
2018-02-24T14:53:33.231Z,8.52
2018-02-24T14:56:01.490Z,7.98
2018-02-24T14:58:29.788Z,9.00
2018-02-24T15:00:58.054Z,4.98
2018-02-24T15:03:26.353Z,6.87
2018-02-24T15:05:54.632Z,13.20
2018-02-24T15:08:22.931Z,10.86
2018-02-24T15:10:51.224Z,5.90
2018-02-24T15:13:19.523Z,9.93
2018-02-24T15:15:47.787Z,10.37
2018-02-24T15:18:16.080Z,10.25
2018-02-24T15:20:44.344Z,9.35
2018-02-24T15:23:12.598Z,9.98
2018-02-24T15:25:40.902Z,14.75
2018-02-24T15:28:09.193Z,10.77
2018-02-24T15:30:36.715Z,9.97
2018-02-24T15:33:05.559Z,8.57
2018-02-24T15:35:33.859Z,7.12
2018-02-24T15:38:02.153Z,10.30
2018-02-24T15:40:30.449Z,10.90
2018-02-24T15:42:58.709Z,9.27
2018-02-24T15:45:27.007Z,8.43
2018-02-24T15:47:55.270Z,10.78
2018-02-24T15:50:23.545Z,15.03
2018-02-24T15:52:51.084Z,14.32
2018-02-24T15:55:19.361Z,11.02
2018-02-24T15:57:47.623Z,9.70
2018-02-24T16:00:15.912Z,11.78
2018-02-24T16:03:05.937Z,17.92
2018-02-24T16:05:34.842Z,12.05
2018-02-24T16:08:03.136Z,11.43
2018-02-24T16:10:31.416Z,12.60
2018-02-24T16:12:59.723Z,13.25
2018-02-24T16:15:27.997Z,14.08
2018-02-24T16:17:56.273Z,9.37
2018-02-24T16:20:24.563Z,11.23
2018-02-24T16:22:52.857Z,14.72
2018-02-24T16:25:20.354Z,17.78
2018-02-24T16:27:48.650Z,16.22
2018-02-24T16:30:16.916Z,13.93
2018-02-24T16:32:45.276Z,11.43
2018-02-24T16:35:16.755Z,14.18
2018-02-24T16:37:45.055Z,10.43
2018-02-24T16:40:13.360Z,11.32
2018-02-24T16:42:41.620Z,11.03
2018-02-24T16:45:09.900Z,11.27
2018-02-24T16:47:38.169Z,9.72
2018-02-24T16:50:06.823Z,13.00
2018-02-24T16:52:36.068Z,10.18
2018-02-24T16:55:05.228Z,9.63
2018-02-24T16:57:33.510Z,7.80
2018-02-24T17:00:01.762Z,7.78
2018-02-24T17:02:29.301Z,10.33
2018-02-24T17:04:57.570Z,8.85
2018-02-24T17:07:25.866Z,10.82
2018-02-24T17:09:54.130Z,9.72
2018-02-24T17:12:22.424Z,6.87
2018-02-24T17:14:51.663Z,10.25
2018-02-24T17:17:19.970Z,8.50
2018-02-24T17:19:48.248Z,9.38
2018-02-24T17:22:15.760Z,8.47
2018-02-24T17:24:47.678Z,11.20
2018-02-24T17:27:15.185Z,8.27
2018-02-24T17:29:43.545Z,7.38
2018-02-24T17:32:11.759Z,15.78
2018-02-24T17:34:40.922Z,9.15
2018-02-24T17:37:09.226Z,8.38
2018-02-24T17:39:37.483Z,8.68
2018-02-24T17:42:06.066Z,9.73
2018-02-24T17:44:35.231Z,9.40
2018-02-24T17:47:03.496Z,10.73
2018-02-24T17:49:31.808Z,9.97
2018-02-24T17:52:01.028Z,12.23
2018-02-24T17:54:29.294Z,10.97
2018-02-24T17:56:58.579Z,11.17
2018-02-24T17:59:26.886Z,10.10
2018-02-24T18:01:55.142Z,8.48
2018-02-24T18:04:23.416Z,10.07
2018-02-24T18:06:51.703Z,9.93
2018-02-24T18:09:19.999Z,12.25
2018-02-24T18:11:48.251Z,11.32
2018-02-24T18:14:16.531Z,13.57
2018-02-24T18:16:44.790Z,9.00
2018-02-24T18:19:13.083Z,11.43
2018-02-24T18:21:41.334Z,6.80
2018-02-24T18:24:08.856Z,6.50
2018-02-24T18:26:37.289Z,9.90
2018-02-24T18:29:06.048Z,11.40
2018-02-24T18:31:37.681Z,8.17
2018-02-24T18:34:05.776Z,6.15
2018-02-24T18:36:36.097Z,8.90
2018-02-24T18:39:04.400Z,10.28
2018-02-24T18:41:38.328Z,8.70
2018-02-24T18:44:06.624Z,8.85
2018-02-24T18:46:35.919Z,9.40
2018-02-24T18:49:04.862Z,7.87
2018-02-24T18:51:33.157Z,13.82
2018-02-24T18:54:01.420Z,10.50
2018-02-24T18:56:29.727Z,7.87
2018-02-24T18:58:57.979Z,6.72
2018-02-24T19:01:26.236Z,7.85
2018-02-24T19:03:54.536Z,5.47
2018-02-24T19:06:22.796Z,5.17
2018-02-24T19:08:51.077Z,5.07
2018-02-24T19:11:19.350Z,6.90
2018-02-24T19:13:47.655Z,9.43
2018-02-24T19:16:15.910Z,5.28
2018-02-24T19:18:44.168Z,6.85
2018-02-24T19:21:12.448Z,4.85
2018-02-24T19:23:40.737Z,8.13
2018-02-24T19:26:08.995Z,5.75
2018-02-24T19:28:37.292Z,9.53
2018-02-24T19:31:06.061Z,7.37
2018-02-24T19:33:34.399Z,5.62
2018-02-24T19:36:01.914Z,5.25
2018-02-24T19:38:30.211Z,12.02
2018-02-24T19:40:58.478Z,6.45
2018-02-24T19:43:26.791Z,5.87
2018-02-24T19:45:55.063Z,5.78
2018-02-24T19:48:23.316Z,7.18
2018-02-24T19:50:51.627Z,6.10
2018-02-24T19:53:19.896Z,6.33
2018-02-24T19:55:48.200Z,8.78
2018-02-24T19:58:16.494Z,4.95
2018-02-24T20:00:44.757Z,6.15
2018-02-24T20:03:13.057Z,4.80
2018-02-24T20:05:41.328Z,5.92
2018-02-24T20:08:09.616Z,8.35
2018-02-24T20:10:37.860Z,6.02
2018-02-24T20:13:06.871Z,5.00
2018-02-24T20:15:36.000Z,10.92
2018-02-24T20:18:04.986Z,5.30
2018-02-24T20:20:33.240Z,5.37
2018-02-24T20:23:01.526Z,9.83
2018-02-24T20:25:29.776Z,6.18
2018-02-24T20:27:58.072Z,6.32
2018-02-24T20:30:26.380Z,5.68
2018-02-24T20:32:54.609Z,6.30
2018-02-24T20:35:22.887Z,8.23
2018-02-24T20:37:51.144Z,6.45
2018-02-24T20:40:19.428Z,6.07
2018-02-24T20:42:46.916Z,6.83
2018-02-24T20:45:15.204Z,7.23
2018-02-24T20:47:43.480Z,8.43
2018-02-24T20:50:11.763Z,7.35
2018-02-24T20:52:40.027Z,6.10
2018-02-24T20:55:08.337Z,6.23
2018-02-24T20:57:36.601Z,9.97
2018-02-24T21:00:05.730Z,6.02
2018-02-24T21:02:33.978Z,5.30
2018-02-24T21:05:02.269Z,5.97
2018-02-24T21:07:30.523Z,4.97
2018-02-24T21:09:58.781Z,4.53
2018-02-24T21:12:27.076Z,5.58
2018-02-24T21:14:55.340Z,5.60
2018-02-24T21:17:23.636Z,4.67
2018-02-24T21:19:51.895Z,5.95
2018-02-24T21:22:20.188Z,4.47
2018-02-24T21:24:48.453Z,5.58
2018-02-24T21:27:16.747Z,8.38
2018-02-24T21:29:45.015Z,6.32
2018-02-24T21:32:13.324Z,8.97
2018-02-24T21:34:41.611Z,7.98
2018-02-24T21:37:09.871Z,7.42
2018-02-24T21:39:38.150Z,8.23
2018-02-24T21:42:06.807Z,5.53
2018-02-24T21:44:36.023Z,6.90
2018-02-24T21:47:04.939Z,6.60
2018-02-24T21:49:33.206Z,7.18
2018-02-24T21:52:01.503Z,10.73
2018-02-24T21:54:29.820Z,4.05
2018-02-24T21:56:58.098Z,6.32
2018-02-24T21:59:26.399Z,9.48
2018-02-24T22:01:54.653Z,9.05
2018-02-24T22:04:22.912Z,4.63
2018-02-24T22:06:50.443Z,5.38
2018-02-24T22:09:18.752Z,4.67
2018-02-24T22:11:47.031Z,5.37
2018-02-24T22:14:15.288Z,6.50
2018-02-24T22:16:43.567Z,6.68
2018-02-24T22:19:11.828Z,5.18
2018-02-24T22:21:40.125Z,5.47
2018-02-24T22:24:08.448Z,8.90
2018-02-24T22:26:36.766Z,4.65
2018-02-24T22:29:05.868Z,8.60
2018-02-24T22:31:34.889Z,5.28
2018-02-24T22:34:03.176Z,8.33
2018-02-24T22:36:31.441Z,7.00
2018-02-24T22:38:59.732Z,4.02
2018-02-24T22:41:28.022Z,4.60
2018-02-24T22:43:56.269Z,8.17
2018-02-24T22:46:24.555Z,7.62
2018-02-24T22:48:58.417Z,4.77
2018-02-24T22:51:26.695Z,6.10
2018-02-24T22:53:54.960Z,6.30
2018-02-24T22:56:22.491Z,5.87
2018-02-24T22:58:50.752Z,6.33
2018-02-24T23:01:19.012Z,5.17
2018-02-24T23:03:47.303Z,5.50
2018-02-24T23:06:15.555Z,5.40
2018-02-24T23:08:43.830Z,9.48
2018-02-24T23:11:11.314Z,4.35
2018-02-24T23:13:39.620Z,5.85
2018-02-24T23:16:07.879Z,9.42
2018-02-24T23:18:37.543Z,5.65
2018-02-24T23:21:06.641Z,9.58
2018-02-24T23:23:35.876Z,7.63
2018-02-24T23:26:04.826Z,5.53
2018-02-24T23:28:33.100Z,13.67
2018-02-24T23:31:01.403Z,17.83
2018-02-24T23:33:28.885Z,6.38
2018-02-24T23:35:57.190Z,4.85
2018-02-24T23:38:25.452Z,8.57
2018-02-24T23:40:53.776Z,6.18
2018-02-24T23:43:22.075Z,6.63
2018-02-24T23:45:50.331Z,7.12
2018-02-24T23:48:18.641Z,12.13
2018-02-24T23:50:46.957Z,5.32
2018-02-24T23:53:15.215Z,4.60
2018-02-24T23:55:43.502Z,7.45
2018-02-24T23:58:11.768Z,8.70
